sensor_id;sensor_type;location;lat;lon;timestamp;P1;durP1;ratioP1;P2;durP2;ratioP2
40867;SDS011;26586;50.708;22.412;2023-02-11T00:02:06;33.45;;;19.65;;
40867;SDS011;26586;50.708;22.412;2023-02-11T00:04:32;38.33;;;22.13;;
40867;SDS011;26586;50.708;22.412;2023-02-11T00:06:59;34.17;;;18.33;;
40867;SDS011;26586;50.708;22.412;2023-02-11T00:11:52;31.95;;;17.00;;
40867;SDS011;26586;50.708;22.412;2023-02-11T00:14:18;27.65;;;16.08;;
40867;SDS011;26586;50.708;22.412;2023-02-11T00:16:44;29.63;;;16.73;;
40867;SDS011;26586;50.708;22.412;2023-02-11T00:19:10;29.42;;;17.15;;
40867;SDS011;26586;50.708;22.412;2023-02-11T00:21:37;22.73;;;15.50;;
40867;SDS011;26586;50.708;22.412;2023-02-11T00:24:04;28.17;;;17.65;;
40867;SDS011;26586;50.708;22.412;2023-02-11T00:26:32;27.35;;;14.35;;
40867;SDS011;26586;50.708;22.412;2023-02-11T00:29:00;24.27;;;14.10;;
40867;SDS011;26586;50.708;22.412;2023-02-11T00:31:28;25.95;;;15.32;;
40867;SDS011;26586;50.708;22.412;2023-02-11T00:33:54;26.90;;;15.63;;
40867;SDS011;26586;50.708;22.412;2023-02-11T00:36:24;24.70;;;14.37;;
40867;SDS011;26586;50.708;22.412;2023-02-11T00:38:52;22.83;;;14.23;;
40867;SDS011;26586;50.708;22.412;2023-02-11T00:41:20;23.42;;;14.43;;
40867;SDS011;26586;50.708;22.412;2023-02-11T00:43:47;22.35;;;14.43;;
40867;SDS011;26586;50.708;22.412;2023-02-11T00:48:40;28.05;;;15.05;;
40867;SDS011;26586;50.708;22.412;2023-02-11T00:51:07;23.48;;;13.95;;
40867;SDS011;26586;50.708;22.412;2023-02-11T00:53:33;24.00;;;13.23;;
40867;SDS011;26586;50.708;22.412;2023-02-11T00:56:00;21.80;;;13.60;;
40867;SDS011;26586;50.708;22.412;2023-02-11T00:58:27;24.27;;;14.13;;
40867;SDS011;26586;50.708;22.412;2023-02-11T01:00:53;28.70;;;15.52;;
40867;SDS011;26586;50.708;22.412;2023-02-11T01:03:19;23.47;;;14.80;;
40867;SDS011;26586;50.708;22.412;2023-02-11T01:05:46;24.90;;;14.33;;
40867;SDS011;26586;50.708;22.412;2023-02-11T01:08:12;26.23;;;14.70;;
40867;SDS011;26586;50.708;22.412;2023-02-11T01:10:38;27.83;;;15.50;;
40867;SDS011;26586;50.708;22.412;2023-02-11T01:13:04;27.58;;;14.90;;
40867;SDS011;26586;50.708;22.412;2023-02-11T01:15:31;26.55;;;14.70;;
40867;SDS011;26586;50.708;22.412;2023-02-11T01:17:58;25.00;;;14.88;;
40867;SDS011;26586;50.708;22.412;2023-02-11T01:20:25;23.17;;;14.90;;
40867;SDS011;26586;50.708;22.412;2023-02-11T01:25:18;26.13;;;13.88;;
40867;SDS011;26586;50.708;22.412;2023-02-11T01:27:44;23.70;;;14.02;;
40867;SDS011;26586;50.708;22.412;2023-02-11T01:30:11;23.60;;;13.37;;
40867;SDS011;26586;50.708;22.412;2023-02-11T01:32:38;24.27;;;14.88;;
40867;SDS011;26586;50.708;22.412;2023-02-11T01:35:05;29.20;;;14.52;;
40867;SDS011;26586;50.708;22.412;2023-02-11T01:37:32;30.52;;;14.10;;
40867;SDS011;26586;50.708;22.412;2023-02-11T01:40:03;27.15;;;14.52;;
40867;SDS011;26586;50.708;22.412;2023-02-11T01:42:35;27.02;;;14.35;;
40867;SDS011;26586;50.708;22.412;2023-02-11T01:45:03;31.05;;;14.48;;
40867;SDS011;26586;50.708;22.412;2023-02-11T01:48:05;26.15;;;14.48;;
40867;SDS011;26586;50.708;22.412;2023-02-11T01:50:33;24.67;;;13.85;;
40867;SDS011;26586;50.708;22.412;2023-02-11T01:53:00;26.60;;;14.68;;
40867;SDS011;26586;50.708;22.412;2023-02-11T01:55:47;25.98;;;14.57;;
40867;SDS011;26586;50.708;22.412;2023-02-11T01:58:34;24.05;;;14.13;;
40867;SDS011;26586;50.708;22.412;2023-02-11T02:01:03;22.52;;;13.65;;
40867;SDS011;26586;50.708;22.412;2023-02-11T02:03:32;25.80;;;14.80;;
40867;SDS011;26586;50.708;22.412;2023-02-11T02:06:04;22.60;;;13.00;;
40867;SDS011;26586;50.708;22.412;2023-02-11T02:08:37;22.45;;;14.40;;
40867;SDS011;26586;50.708;22.412;2023-02-11T02:11:08;23.15;;;13.18;;
40867;SDS011;26586;50.708;22.412;2023-02-11T02:13:34;25.42;;;15.10;;
40867;SDS011;26586;50.708;22.412;2023-02-11T02:16:03;22.93;;;13.57;;
40867;SDS011;26586;50.708;22.412;2023-02-11T02:37:43;25.70;;;14.75;;
40867;SDS011;26586;50.708;22.412;2023-02-11T02:40:14;26.10;;;14.40;;
40867;SDS011;26586;50.708;22.412;2023-02-11T02:42:48;22.30;;;13.32;;
40867;SDS011;26586;50.708;22.412;2023-02-11T02:45:15;23.08;;;15.98;;
40867;SDS011;26586;50.708;22.412;2023-02-11T02:47:42;25.27;;;15.63;;
40867;SDS011;26586;50.708;22.412;2023-02-11T02:50:08;23.15;;;13.77;;
40867;SDS011;26586;50.708;22.412;2023-02-11T02:58:42;24.63;;;13.13;;
40867;SDS011;26586;50.708;22.412;2023-02-11T03:09:36;23.95;;;12.70;;
40867;SDS011;26586;50.708;22.412;2023-02-11T03:12:15;19.52;;;12.98;;
40867;SDS011;26586;50.708;22.412;2023-02-11T03:14:43;20.30;;;12.80;;
40867;SDS011;26586;50.708;22.412;2023-02-11T03:17:10;28.08;;;16.23;;
40867;SDS011;26586;50.708;22.412;2023-02-11T03:19:40;20.58;;;12.30;;
40867;SDS011;26586;50.708;22.412;2023-02-11T03:22:31;20.33;;;13.43;;
40867;SDS011;26586;50.708;22.412;2023-02-11T03:24:59;21.23;;;12.95;;
40867;SDS011;26586;50.708;22.412;2023-02-11T03:30:15;22.13;;;13.25;;
40867;SDS011;26586;50.708;22.412;2023-02-11T03:33:19;21.30;;;12.35;;
40867;SDS011;26586;50.708;22.412;2023-02-11T03:35:55;19.85;;;12.80;;
40867;SDS011;26586;50.708;22.412;2023-02-11T03:38:37;22.40;;;13.20;;
40867;SDS011;26586;50.708;22.412;2023-02-11T03:41:11;24.23;;;12.43;;
40867;SDS011;26586;50.708;22.412;2023-02-11T03:43:41;23.17;;;12.32;;
40867;SDS011;26586;50.708;22.412;2023-02-11T03:46:10;23.38;;;13.25;;
40867;SDS011;26586;50.708;22.412;2023-02-11T03:48:39;20.48;;;12.23;;
40867;SDS011;26586;50.708;22.412;2023-02-11T03:51:09;21.25;;;10.70;;
40867;SDS011;26586;50.708;22.412;2023-02-11T03:53:38;19.52;;;11.93;;
40867;SDS011;26586;50.708;22.412;2023-02-11T03:56:08;23.63;;;11.98;;
40867;SDS011;26586;50.708;22.412;2023-02-11T03:58:38;19.15;;;11.52;;
40867;SDS011;26586;50.708;22.412;2023-02-11T04:01:04;18.17;;;10.70;;
40867;SDS011;26586;50.708;22.412;2023-02-11T04:03:34;19.40;;;11.38;;
40867;SDS011;26586;50.708;22.412;2023-02-11T04:06:00;19.75;;;11.18;;
40867;SDS011;26586;50.708;22.412;2023-02-11T04:08:26;20.38;;;11.50;;
40867;SDS011;26586;50.708;22.412;2023-02-11T04:10:52;17.48;;;11.38;;
40867;SDS011;26586;50.708;22.412;2023-02-11T04:13:19;16.73;;;11.55;;
40867;SDS011;26586;50.708;22.412;2023-02-11T04:15:44;18.75;;;11.32;;
40867;SDS011;26586;50.708;22.412;2023-02-11T04:18:11;18.88;;;12.32;;
40867;SDS011;26586;50.708;22.412;2023-02-11T04:20:37;17.75;;;10.70;;
40867;SDS011;26586;50.708;22.412;2023-02-11T04:23:03;19.50;;;11.68;;
40867;SDS011;26586;50.708;22.412;2023-02-11T04:25:29;21.42;;;12.48;;
40867;SDS011;26586;50.708;22.412;2023-02-11T04:27:56;19.77;;;12.60;;
40867;SDS011;26586;50.708;22.412;2023-02-11T04:30:22;17.65;;;11.65;;
40867;SDS011;26586;50.708;22.412;2023-02-11T04:32:48;19.97;;;12.50;;
40867;SDS011;26586;50.708;22.412;2023-02-11T04:35:14;18.52;;;11.98;;
40867;SDS011;26586;50.708;22.412;2023-02-11T04:37:41;17.00;;;11.50;;
40867;SDS011;26586;50.708;22.412;2023-02-11T04:40:07;19.25;;;12.50;;
40867;SDS011;26586;50.708;22.412;2023-02-11T04:42:34;20.08;;;12.95;;
40867;SDS011;26586;50.708;22.412;2023-02-11T04:45:00;19.80;;;11.55;;
40867;SDS011;26586;50.708;22.412;2023-02-11T04:47:26;19.73;;;12.23;;
40867;SDS011;26586;50.708;22.412;2023-02-11T04:49:52;21.17;;;13.25;;
40867;SDS011;26586;50.708;22.412;2023-02-11T04:52:18;21.17;;;14.98;;
40867;SDS011;26586;50.708;22.412;2023-02-11T04:54:44;23.75;;;13.23;;
40867;SDS011;26586;50.708;22.412;2023-02-11T04:57:11;20.65;;;11.68;;
40867;SDS011;26586;50.708;22.412;2023-02-11T04:59:37;20.10;;;13.05;;
40867;SDS011;26586;50.708;22.412;2023-02-11T05:02:03;21.73;;;12.47;;
40867;SDS011;26586;50.708;22.412;2023-02-11T05:04:29;20.75;;;12.40;;
40867;SDS011;26586;50.708;22.412;2023-02-11T05:06:56;21.20;;;13.35;;
40867;SDS011;26586;50.708;22.412;2023-02-11T05:09:22;19.40;;;11.38;;
40867;SDS011;26586;50.708;22.412;2023-02-11T05:11:48;20.95;;;12.50;;
40867;SDS011;26586;50.708;22.412;2023-02-11T05:14:14;17.65;;;12.15;;
40867;SDS011;26586;50.708;22.412;2023-02-11T05:16:40;20.25;;;12.98;;
40867;SDS011;26586;50.708;22.412;2023-02-11T05:19:06;20.80;;;12.95;;
40867;SDS011;26586;50.708;22.412;2023-02-11T05:21:33;22.17;;;12.48;;
40867;SDS011;26586;50.708;22.412;2023-02-11T05:23:59;20.60;;;12.93;;
40867;SDS011;26586;50.708;22.412;2023-02-11T05:26:25;18.57;;;12.47;;
40867;SDS011;26586;50.708;22.412;2023-02-11T05:28:52;19.98;;;11.15;;
40867;SDS011;26586;50.708;22.412;2023-02-11T05:31:18;18.48;;;11.88;;
40867;SDS011;26586;50.708;22.412;2023-02-11T05:33:44;18.73;;;12.07;;
40867;SDS011;26586;50.708;22.412;2023-02-11T05:36:11;19.20;;;12.52;;
40867;SDS011;26586;50.708;22.412;2023-02-11T05:38:37;17.20;;;11.65;;
40867;SDS011;26586;50.708;22.412;2023-02-11T05:41:05;20.17;;;11.57;;
40867;SDS011;26586;50.708;22.412;2023-02-11T05:43:31;21.08;;;13.15;;
40867;SDS011;26586;50.708;22.412;2023-02-11T05:46:00;20.58;;;12.98;;
40867;SDS011;26586;50.708;22.412;2023-02-11T05:48:26;19.65;;;12.48;;
40867;SDS011;26586;50.708;22.412;2023-02-11T05:50:52;18.80;;;11.80;;
40867;SDS011;26586;50.708;22.412;2023-02-11T05:53:18;19.85;;;11.88;;
40867;SDS011;26586;50.708;22.412;2023-02-11T05:55:45;18.57;;;11.17;;
40867;SDS011;26586;50.708;22.412;2023-02-11T05:58:11;23.25;;;15.05;;
40867;SDS011;26586;50.708;22.412;2023-02-11T06:00:37;19.20;;;12.18;;
40867;SDS011;26586;50.708;22.412;2023-02-11T06:03:03;16.10;;;10.27;;
40867;SDS011;26586;50.708;22.412;2023-02-11T06:05:30;18.47;;;12.80;;
40867;SDS011;26586;50.708;22.412;2023-02-11T06:07:56;20.67;;;12.70;;
40867;SDS011;26586;50.708;22.412;2023-02-11T06:10:22;17.92;;;12.10;;
40867;SDS011;26586;50.708;22.412;2023-02-11T06:12:48;19.88;;;13.15;;
40867;SDS011;26586;50.708;22.412;2023-02-11T06:15:15;20.43;;;11.93;;
40867;SDS011;26586;50.708;22.412;2023-02-11T06:17:41;17.80;;;11.52;;
40867;SDS011;26586;50.708;22.412;2023-02-11T06:20:08;17.35;;;11.70;;
40867;SDS011;26586;50.708;22.412;2023-02-11T06:22:34;18.30;;;11.82;;
40867;SDS011;26586;50.708;22.412;2023-02-11T06:25:01;19.40;;;12.50;;
40867;SDS011;26586;50.708;22.412;2023-02-11T06:27:28;20.40;;;11.97;;
40867;SDS011;26586;50.708;22.412;2023-02-11T06:29:54;19.30;;;12.45;;
40867;SDS011;26586;50.708;22.412;2023-02-11T06:32:20;19.10;;;12.52;;
40867;SDS011;26586;50.708;22.412;2023-02-11T06:34:47;16.55;;;11.27;;
40867;SDS011;26586;50.708;22.412;2023-02-11T06:37:13;19.00;;;12.13;;
40867;SDS011;26586;50.708;22.412;2023-02-11T06:39:39;17.70;;;10.82;;
40867;SDS011;26586;50.708;22.412;2023-02-11T06:42:05;16.38;;;11.27;;
40867;SDS011;26586;50.708;22.412;2023-02-11T06:44:31;17.90;;;11.27;;
40867;SDS011;26586;50.708;22.412;2023-02-11T06:46:57;16.65;;;10.63;;
40867;SDS011;26586;50.708;22.412;2023-02-11T06:49:24;22.75;;;16.88;;
40867;SDS011;26586;50.708;22.412;2023-02-11T06:51:50;18.25;;;11.00;;
40867;SDS011;26586;50.708;22.412;2023-02-11T06:54:16;14.10;;;9.98;;
40867;SDS011;26586;50.708;22.412;2023-02-11T06:56:42;17.23;;;11.18;;
40867;SDS011;26586;50.708;22.412;2023-02-11T06:59:11;42.67;;;25.73;;
40867;SDS011;26586;50.708;22.412;2023-02-11T07:01:43;18.55;;;12.18;;
40867;SDS011;26586;50.708;22.412;2023-02-11T07:04:09;15.13;;;10.27;;
40867;SDS011;26586;50.708;22.412;2023-02-11T07:06:35;13.43;;;8.80;;
40867;SDS011;26586;50.708;22.412;2023-02-11T07:09:05;15.43;;;10.07;;
40867;SDS011;26586;50.708;22.412;2023-02-11T07:11:32;15.60;;;9.15;;
40867;SDS011;26586;50.708;22.412;2023-02-11T07:13:59;17.35;;;10.77;;
40867;SDS011;26586;50.708;22.412;2023-02-11T07:16:30;16.42;;;10.35;;
40867;SDS011;26586;50.708;22.412;2023-02-11T07:18:57;15.75;;;10.10;;
40867;SDS011;26586;50.708;22.412;2023-02-11T07:21:23;14.00;;;10.13;;
40867;SDS011;26586;50.708;22.412;2023-02-11T07:23:50;15.73;;;11.03;;
40867;SDS011;26586;50.708;22.412;2023-02-11T07:26:18;14.93;;;8.80;;
40867;SDS011;26586;50.708;22.412;2023-02-11T07:28:48;19.65;;;12.10;;
40867;SDS011;26586;50.708;22.412;2023-02-11T07:31:16;15.13;;;10.15;;
40867;SDS011;26586;50.708;22.412;2023-02-11T07:33:48;22.70;;;13.40;;
40867;SDS011;26586;50.708;22.412;2023-02-11T07:36:14;12.30;;;8.95;;
40867;SDS011;26586;50.708;22.412;2023-02-11T07:38:41;13.90;;;9.77;;
40867;SDS011;26586;50.708;22.412;2023-02-11T07:41:09;14.90;;;9.50;;
40867;SDS011;26586;50.708;22.412;2023-02-11T07:43:40;17.13;;;10.40;;
40867;SDS011;26586;50.708;22.412;2023-02-11T07:46:07;18.02;;;11.55;;
40867;SDS011;26586;50.708;22.412;2023-02-11T07:48:36;20.80;;;13.95;;
40867;SDS011;26586;50.708;22.412;2023-02-11T07:51:06;19.23;;;11.68;;
40867;SDS011;26586;50.708;22.412;2023-02-11T07:53:42;15.45;;;9.93;;
40867;SDS011;26586;50.708;22.412;2023-02-11T07:56:09;16.65;;;10.70;;
40867;SDS011;26586;50.708;22.412;2023-02-11T07:58:37;17.13;;;11.25;;
40867;SDS011;26586;50.708;22.412;2023-02-11T08:01:07;18.33;;;12.60;;
40867;SDS011;26586;50.708;22.412;2023-02-11T08:03:39;19.88;;;13.07;;
40867;SDS011;26586;50.708;22.412;2023-02-11T08:06:08;16.08;;;10.45;;
40867;SDS011;26586;50.708;22.412;2023-02-11T08:08:36;15.13;;;10.15;;
40867;SDS011;26586;50.708;22.412;2023-02-11T08:11:12;15.20;;;9.73;;
40867;SDS011;26586;50.708;22.412;2023-02-11T08:13:42;15.85;;;10.18;;
40867;SDS011;26586;50.708;22.412;2023-02-11T08:16:09;15.40;;;9.15;;
40867;SDS011;26586;50.708;22.412;2023-02-11T08:18:52;17.15;;;10.65;;
40867;SDS011;26586;50.708;22.412;2023-02-11T08:21:22;16.88;;;10.88;;
40867;SDS011;26586;50.708;22.412;2023-02-11T08:23:48;13.52;;;9.13;;
40867;SDS011;26586;50.708;22.412;2023-02-11T08:26:19;13.27;;;9.15;;
40867;SDS011;26586;50.708;22.412;2023-02-11T08:28:48;13.07;;;9.20;;
40867;SDS011;26586;50.708;22.412;2023-02-11T08:31:17;21.85;;;15.73;;
40867;SDS011;26586;50.708;22.412;2023-02-11T08:33:47;13.32;;;9.90;;
40867;SDS011;26586;50.708;22.412;2023-02-11T08:36:17;20.27;;;12.60;;
40867;SDS011;26586;50.708;22.412;2023-02-11T08:38:48;18.05;;;11.43;;
40867;SDS011;26586;50.708;22.412;2023-02-11T08:41:14;14.00;;;9.60;;
40867;SDS011;26586;50.708;22.412;2023-02-11T08:46:09;16.10;;;9.05;;
40867;SDS011;26586;50.708;22.412;2023-02-11T08:48:38;15.52;;;9.95;;
40867;SDS011;26586;50.708;22.412;2023-02-11T08:51:07;13.40;;;8.77;;
40867;SDS011;26586;50.708;22.412;2023-02-11T08:53:36;14.85;;;10.80;;
40867;SDS011;26586;50.708;22.412;2023-02-11T08:56:02;14.23;;;8.68;;
40867;SDS011;26586;50.708;22.412;2023-02-11T08:58:28;16.08;;;9.50;;
40867;SDS011;26586;50.708;22.412;2023-02-11T09:00:55;17.23;;;10.77;;
40867;SDS011;26586;50.708;22.412;2023-02-11T09:03:21;17.80;;;10.47;;
40867;SDS011;26586;50.708;22.412;2023-02-11T09:05:48;16.40;;;10.05;;
40867;SDS011;26586;50.708;22.412;2023-02-11T09:08:15;17.58;;;8.90;;
40867;SDS011;26586;50.708;22.412;2023-02-11T09:10:41;13.95;;;9.13;;
40867;SDS011;26586;50.708;22.412;2023-02-11T09:13:08;16.67;;;9.98;;
40867;SDS011;26586;50.708;22.412;2023-02-11T09:15:34;15.45;;;8.57;;
40867;SDS011;26586;50.708;22.412;2023-02-11T09:18:04;14.63;;;9.17;;
40867;SDS011;26586;50.708;22.412;2023-02-11T09:20:30;16.00;;;9.63;;
40867;SDS011;26586;50.708;22.412;2023-02-11T09:22:57;16.67;;;10.57;;
40867;SDS011;26586;50.708;22.412;2023-02-11T09:25:24;12.50;;;7.88;;
40867;SDS011;26586;50.708;22.412;2023-02-11T09:27:50;14.57;;;9.43;;
40867;SDS011;26586;50.708;22.412;2023-02-11T09:30:18;13.02;;;8.07;;
40867;SDS011;26586;50.708;22.412;2023-02-11T09:32:44;14.80;;;9.30;;
40867;SDS011;26586;50.708;22.412;2023-02-11T09:35:10;11.63;;;8.02;;
40867;SDS011;26586;50.708;22.412;2023-02-11T09:37:36;14.60;;;8.97;;
40867;SDS011;26586;50.708;22.412;2023-02-11T09:40:02;15.18;;;9.15;;
40867;SDS011;26586;50.708;22.412;2023-02-11T09:42:42;16.40;;;9.45;;
40867;SDS011;26586;50.708;22.412;2023-02-11T09:45:29;14.75;;;9.30;;
40867;SDS011;26586;50.708;22.412;2023-02-11T09:47:58;18.55;;;9.95;;
40867;SDS011;26586;50.708;22.412;2023-02-11T09:50:49;14.30;;;9.10;;
40867;SDS011;26586;50.708;22.412;2023-02-11T09:53:22;11.77;;;8.13;;
40867;SDS011;26586;50.708;22.412;2023-02-11T09:55:51;13.70;;;9.27;;
40867;SDS011;26586;50.708;22.412;2023-02-11T09:58:26;13.60;;;8.95;;
40867;SDS011;26586;50.708;22.412;2023-02-11T10:22:46;14.85;;;9.48;;
40867;SDS011;26586;50.708;22.412;2023-02-11T10:27:47;13.45;;;8.90;;
40867;SDS011;26586;50.708;22.412;2023-02-11T10:35:17;18.23;;;11.07;;
40867;SDS011;26586;50.708;22.412;2023-02-11T10:37:47;21.27;;;10.70;;
40867;SDS011;26586;50.708;22.412;2023-02-11T10:40:31;14.65;;;9.52;;
40867;SDS011;26586;50.708;22.412;2023-02-11T10:42:59;13.05;;;9.23;;
40867;SDS011;26586;50.708;22.412;2023-02-11T10:45:37;14.40;;;9.93;;
40867;SDS011;26586;50.708;22.412;2023-02-11T10:53:35;14.00;;;8.85;;
40867;SDS011;26586;50.708;22.412;2023-02-11T10:56:02;16.30;;;9.70;;
40867;SDS011;26586;50.708;22.412;2023-02-11T10:58:31;15.48;;;10.05;;
40867;SDS011;26586;50.708;22.412;2023-02-11T11:01:04;13.93;;;8.77;;
40867;SDS011;26586;50.708;22.412;2023-02-11T11:03:32;15.98;;;9.98;;
40867;SDS011;26586;50.708;22.412;2023-02-11T11:06:07;16.23;;;11.57;;
40867;SDS011;26586;50.708;22.412;2023-02-11T11:11:12;18.08;;;9.98;;
40867;SDS011;26586;50.708;22.412;2023-02-11T11:13:41;17.38;;;10.18;;
40867;SDS011;26586;50.708;22.412;2023-02-11T11:18:48;22.17;;;12.65;;
40867;SDS011;26586;50.708;22.412;2023-02-11T11:24:16;16.15;;;10.18;;
40867;SDS011;26586;50.708;22.412;2023-02-11T11:26:47;13.88;;;9.30;;
40867;SDS011;26586;50.708;22.412;2023-02-11T11:29:20;16.95;;;10.63;;
40867;SDS011;26586;50.708;22.412;2023-02-11T11:31:56;14.35;;;9.70;;
40867;SDS011;26586;50.708;22.412;2023-02-11T11:34:29;18.10;;;11.00;;
40867;SDS011;26586;50.708;22.412;2023-02-11T11:36:58;14.82;;;10.35;;
40867;SDS011;26586;50.708;22.412;2023-02-11T11:39:33;18.70;;;11.60;;
40867;SDS011;26586;50.708;22.412;2023-02-11T11:42:01;19.25;;;12.63;;
40867;SDS011;26586;50.708;22.412;2023-02-11T11:52:46;18.77;;;11.57;;
40867;SDS011;26586;50.708;22.412;2023-02-11T11:57:46;18.80;;;11.93;;
40867;SDS011;26586;50.708;22.412;2023-02-11T12:00:20;25.02;;;13.75;;
40867;SDS011;26586;50.708;22.412;2023-02-11T12:11:08;20.30;;;11.88;;
40867;SDS011;26586;50.708;22.412;2023-02-11T12:19:38;16.77;;;10.25;;
40867;SDS011;26586;50.708;22.412;2023-02-11T12:33:10;17.25;;;11.07;;
40867;SDS011;26586;50.708;22.412;2023-02-11T12:35:58;23.63;;;13.40;;
40867;SDS011;26586;50.708;22.412;2023-02-11T12:52:49;20.45;;;12.27;;
40867;SDS011;26586;50.708;22.412;2023-02-11T12:55:28;18.45;;;12.32;;
40867;SDS011;26586;50.708;22.412;2023-02-11T12:58:01;17.05;;;10.98;;
40867;SDS011;26586;50.708;22.412;2023-02-11T13:00:37;13.65;;;9.98;;
40867;SDS011;26586;50.708;22.412;2023-02-11T13:03:11;18.90;;;11.55;;
40867;SDS011;26586;50.708;22.412;2023-02-11T13:06:06;21.25;;;13.63;;
40867;SDS011;26586;50.708;22.412;2023-02-11T13:08:43;24.63;;;15.82;;
40867;SDS011;26586;50.708;22.412;2023-02-11T13:13:48;19.60;;;13.63;;
40867;SDS011;26586;50.708;22.412;2023-02-11T13:19:05;20.08;;;12.80;;
40867;SDS011;26586;50.708;22.412;2023-02-11T13:35:34;16.83;;;9.95;;
40867;SDS011;26586;50.708;22.412;2023-02-11T13:38:05;14.15;;;9.98;;
40867;SDS011;26586;50.708;22.412;2023-02-11T13:40:56;16.30;;;10.70;;
40867;SDS011;26586;50.708;22.412;2023-02-11T13:43:27;18.08;;;10.55;;
40867;SDS011;26586;50.708;22.412;2023-02-11T13:45:58;19.45;;;11.45;;
40867;SDS011;26586;50.708;22.412;2023-02-11T13:48:34;20.08;;;12.02;;
40867;SDS011;26586;50.708;22.412;2023-02-11T13:51:11;16.48;;;10.02;;
40867;SDS011;26586;50.708;22.412;2023-02-11T13:53:47;16.83;;;10.43;;
40867;SDS011;26586;50.708;22.412;2023-02-11T13:58:57;17.05;;;11.20;;
40867;SDS011;26586;50.708;22.412;2023-02-11T14:01:41;25.50;;;12.93;;
40867;SDS011;26586;50.708;22.412;2023-02-11T14:04:31;19.80;;;13.77;;
40867;SDS011;26586;50.708;22.412;2023-02-11T14:07:27;22.95;;;14.75;;
40867;SDS011;26586;50.708;22.412;2023-02-11T14:16:12;42.00;;;23.67;;
40867;SDS011;26586;50.708;22.412;2023-02-11T14:21:22;51.38;;;24.92;;
40867;SDS011;26586;50.708;22.412;2023-02-11T14:34:34;26.45;;;15.00;;
40867;SDS011;26586;50.708;22.412;2023-02-11T14:40:08;20.60;;;13.75;;
40867;SDS011;26586;50.708;22.412;2023-02-11T14:42:36;23.70;;;14.93;;
40867;SDS011;26586;50.708;22.412;2023-02-11T14:45:04;42.50;;;25.73;;
40867;SDS011;26586;50.708;22.412;2023-02-11T14:48:01;37.00;;;20.95;;
40867;SDS011;26586;50.708;22.412;2023-02-11T14:50:26;33.13;;;21.67;;
40867;SDS011;26586;50.708;22.412;2023-02-11T14:52:58;24.17;;;15.90;;
40867;SDS011;26586;50.708;22.412;2023-02-11T14:58:04;19.52;;;11.60;;
40867;SDS011;26586;50.708;22.412;2023-02-11T15:03:30;18.92;;;11.95;;
40867;SDS011;26586;50.708;22.412;2023-02-11T15:06:06;21.92;;;14.07;;
40867;SDS011;26586;50.708;22.412;2023-02-11T15:08:44;31.85;;;18.13;;
40867;SDS011;26586;50.708;22.412;2023-02-11T15:11:33;22.88;;;15.55;;
40867;SDS011;26586;50.708;22.412;2023-02-11T15:14:10;24.75;;;15.93;;
40867;SDS011;26586;50.708;22.412;2023-02-11T15:16:52;20.98;;;14.63;;
40867;SDS011;26586;50.708;22.412;2023-02-11T15:19:30;16.52;;;11.60;;
40867;SDS011;26586;50.708;22.412;2023-02-11T15:22:01;25.35;;;15.40;;
40867;SDS011;26586;50.708;22.412;2023-02-11T15:24:31;19.58;;;13.10;;
40867;SDS011;26586;50.708;22.412;2023-02-11T15:29:39;22.75;;;15.55;;
40867;SDS011;26586;50.708;22.412;2023-02-11T15:32:16;22.75;;;14.52;;
40867;SDS011;26586;50.708;22.412;2023-02-11T15:34:46;19.63;;;13.32;;
40867;SDS011;26586;50.708;22.412;2023-02-11T15:39:45;21.48;;;12.88;;
40867;SDS011;26586;50.708;22.412;2023-02-11T15:42:16;22.02;;;13.75;;
40867;SDS011;26586;50.708;22.412;2023-02-11T15:44:42;23.35;;;14.38;;
40867;SDS011;26586;50.708;22.412;2023-02-11T15:47:09;40.85;;;21.08;;
40867;SDS011;26586;50.708;22.412;2023-02-11T15:49:43;32.53;;;18.08;;
40867;SDS011;26586;50.708;22.412;2023-02-11T15:52:11;39.53;;;20.92;;
40867;SDS011;26586;50.708;22.412;2023-02-11T15:54:39;34.17;;;18.35;;
40867;SDS011;26586;50.708;22.412;2023-02-11T15:57:10;26.88;;;15.90;;
40867;SDS011;26586;50.708;22.412;2023-02-11T15:59:37;24.58;;;13.35;;
40867;SDS011;26586;50.708;22.412;2023-02-11T16:02:07;18.02;;;12.57;;
40867;SDS011;26586;50.708;22.412;2023-02-11T16:04:46;22.50;;;15.10;;
40867;SDS011;26586;50.708;22.412;2023-02-11T16:10:22;21.85;;;13.73;;
40867;SDS011;26586;50.708;22.412;2023-02-11T16:13:00;22.35;;;13.15;;
40867;SDS011;26586;50.708;22.412;2023-02-11T16:15:48;23.67;;;15.38;;
40867;SDS011;26586;50.708;22.412;2023-02-11T16:18:24;23.35;;;12.73;;
40867;SDS011;26586;50.708;22.412;2023-02-11T16:20:57;20.77;;;12.40;;
40867;SDS011;26586;50.708;22.412;2023-02-11T16:23:26;25.40;;;16.75;;
40867;SDS011;26586;50.708;22.412;2023-02-11T16:26:05;23.83;;;15.95;;
40867;SDS011;26586;50.708;22.412;2023-02-11T16:28:37;19.02;;;13.02;;
40867;SDS011;26586;50.708;22.412;2023-02-11T16:31:03;16.92;;;11.50;;
40867;SDS011;26586;50.708;22.412;2023-02-11T16:33:30;16.30;;;11.90;;
40867;SDS011;26586;50.708;22.412;2023-02-11T16:35:56;20.83;;;12.15;;
40867;SDS011;26586;50.708;22.412;2023-02-11T16:38:27;20.80;;;12.32;;
40867;SDS011;26586;50.708;22.412;2023-02-11T16:40:54;20.52;;;12.95;;
40867;SDS011;26586;50.708;22.412;2023-02-11T16:43:20;18.83;;;11.50;;
40867;SDS011;26586;50.708;22.412;2023-02-11T16:45:46;23.15;;;13.93;;
40867;SDS011;26586;50.708;22.412;2023-02-11T16:48:14;31.30;;;18.75;;
40867;SDS011;26586;50.708;22.412;2023-02-11T16:50:43;22.42;;;13.98;;
40867;SDS011;26586;50.708;22.412;2023-02-11T16:53:11;17.65;;;12.45;;
40867;SDS011;26586;50.708;22.412;2023-02-11T16:55:45;19.88;;;12.55;;
40867;SDS011;26586;50.708;22.412;2023-02-11T16:58:12;20.33;;;12.83;;
40867;SDS011;26586;50.708;22.412;2023-02-11T17:00:38;28.02;;;15.70;;
40867;SDS011;26586;50.708;22.412;2023-02-11T17:03:05;26.63;;;17.70;;
40867;SDS011;26586;50.708;22.412;2023-02-11T17:05:32;27.95;;;15.07;;
40867;SDS011;26586;50.708;22.412;2023-02-11T17:08:00;27.40;;;17.75;;
40867;SDS011;26586;50.708;22.412;2023-02-11T17:10:27;24.33;;;15.63;;
40867;SDS011;26586;50.708;22.412;2023-02-11T17:12:55;26.92;;;16.52;;
40867;SDS011;26586;50.708;22.412;2023-02-11T17:15:21;18.92;;;13.02;;
40867;SDS011;26586;50.708;22.412;2023-02-11T17:17:47;18.33;;;12.23;;
40867;SDS011;26586;50.708;22.412;2023-02-11T17:20:14;17.35;;;12.00;;
40867;SDS011;26586;50.708;22.412;2023-02-11T17:22:40;21.42;;;14.25;;
40867;SDS011;26586;50.708;22.412;2023-02-11T17:25:06;20.85;;;13.00;;
40867;SDS011;26586;50.708;22.412;2023-02-11T17:27:33;22.65;;;14.02;;
40867;SDS011;26586;50.708;22.412;2023-02-11T17:29:59;20.30;;;13.00;;
40867;SDS011;26586;50.708;22.412;2023-02-11T17:32:26;19.63;;;12.67;;
40867;SDS011;26586;50.708;22.412;2023-02-11T17:34:52;20.80;;;13.43;;
40867;SDS011;26586;50.708;22.412;2023-02-11T17:37:19;18.08;;;12.85;;
40867;SDS011;26586;50.708;22.412;2023-02-11T17:39:45;17.83;;;12.43;;
40867;SDS011;26586;50.708;22.412;2023-02-11T17:42:13;20.98;;;15.30;;
40867;SDS011;26586;50.708;22.412;2023-02-11T17:44:39;17.98;;;13.18;;